Terminal Aerodrome Forecast
Issued by NWS Tulsa, OK

Home | Current Version | Previous Version | Text Only | Print | Product List | Glossary On
Versions: 1 2 3 4 5 6 7 8 9 10 11 12 13 14 15 16 17
000
FTUS44 KTSA 231740
TAFTUL
TAF
KTUL 231740Z 2318/2418 03005KT P6SM -RA BKN006 BKN012
     FM231900 05005KT 3SM -RA BR BKN006
      TEMPO 2322/2324 6SM BR SCT007 BKN025 OVC035
     FM240600 VRB04KT 2SM BR VCSH OVC005
     FM241500 15006KT 3SM -RA VCTS BKN006CB=

USA.gov is the U.S. government's official web portal to all federal, state and local government web resources and services.